sensor_id;sensor_type;location;lat;lon;timestamp;pressure;altitude;pressure_sealevel;temperature;humidity
15646;BME280;7922;43.622;1.476;2023-03-16T00:02:05;100092.94;;;6.21;94.21
15646;BME280;7922;43.622;1.476;2023-03-16T00:04:31;100029.03;;;5.77;94.14
15646;BME280;7922;43.622;1.476;2023-03-16T00:06:57;99999.53;;;5.65;94.82
15646;BME280;7922;43.622;1.476;2023-03-16T00:09:22;100004.09;;;5.55;94.26
15646;BME280;7922;43.622;1.476;2023-03-16T00:11:48;99986.78;;;5.46;94.16
15646;BME280;7922;43.622;1.476;2023-03-16T00:14:13;100138.16;;;6.37;94.36
15646;BME280;7922;43.622;1.476;2023-03-16T00:16:38;99966.88;;;5.36;94.55
15646;BME280;7922;43.622;1.476;2023-03-16T00:19:03;100069.81;;;5.97;94.63
15646;BME280;7922;43.622;1.476;2023-03-16T00:21:29;100045.69;;;5.78;94.40
15646;BME280;7922;43.622;1.476;2023-03-16T00:23:54;100048.44;;;5.72;95.09
15646;BME280;7922;43.622;1.476;2023-03-16T00:26:19;100075.91;;;5.99;94.87
15646;BME280;7922;43.622;1.476;2023-03-16T00:28:45;100040.31;;;5.83;95.57
15646;BME280;7922;43.622;1.476;2023-03-16T00:31:11;99987.34;;;5.61;95.53
15646;BME280;7922;43.622;1.476;2023-03-16T00:33:37;99959.56;;;5.50;94.85
15646;BME280;7922;43.622;1.476;2023-03-16T00:36:04;99956.81;;;5.57;95.41
15646;BME280;7922;43.622;1.476;2023-03-16T00:38:32;99962.84;;;5.60;94.63
15646;BME280;7922;43.622;1.476;2023-03-16T00:40:58;100051.25;;;6.05;94.86
15646;BME280;7922;43.622;1.476;2023-03-16T00:43:24;100046.88;;;6.03;95.09
15646;BME280;7922;43.622;1.476;2023-03-16T00:45:49;99937.16;;;5.34;95.64
15646;BME280;7922;43.622;1.476;2023-03-16T00:48:14;100039.06;;;6.00;95.21
15646;BME280;7922;43.622;1.476;2023-03-16T00:50:40;99904.22;;;5.19;95.25
15646;BME280;7922;43.622;1.476;2023-03-16T00:53:05;100069.41;;;6.15;96.01
15646;BME280;7922;43.622;1.476;2023-03-16T00:55:30;100029.63;;;5.90;95.91
15646;BME280;7922;43.622;1.476;2023-03-16T00:57:56;99899.16;;;5.10;95.72
15646;BME280;7922;43.622;1.476;2023-03-16T01:00:21;100076.38;;;6.18;95.32
15646;BME280;7922;43.622;1.476;2023-03-16T01:02:47;100055.09;;;5.88;95.36
15646;BME280;7922;43.622;1.476;2023-03-16T01:05:13;100044.31;;;6.00;95.87
15646;BME280;7922;43.622;1.476;2023-03-16T01:07:39;100035.75;;;5.91;95.26
15646;BME280;7922;43.622;1.476;2023-03-16T01:10:06;99913.81;;;5.20;95.90
15646;BME280;7922;43.622;1.476;2023-03-16T01:12:32;100014.94;;;5.80;95.10
15646;BME280;7922;43.622;1.476;2023-03-16T01:14:57;100009.75;;;5.77;95.22
15646;BME280;7922;43.622;1.476;2023-03-16T01:17:22;99986.50;;;5.60;95.19
15646;BME280;7922;43.622;1.476;2023-03-16T01:19:48;99862.88;;;4.89;94.70
15646;BME280;7922;43.622;1.476;2023-03-16T01:22:14;99877.88;;;4.82;95.06
15646;BME280;7922;43.622;1.476;2023-03-16T01:24:41;100061.28;;;5.86;95.05
15646;BME280;7922;43.622;1.476;2023-03-16T01:27:07;100050.81;;;5.83;95.38
15646;BME280;7922;43.622;1.476;2023-03-16T01:29:33;99926.38;;;5.06;95.73
15646;BME280;7922;43.622;1.476;2023-03-16T01:31:59;99922.91;;;5.05;94.92
15646;BME280;7922;43.622;1.476;2023-03-16T01:34:25;99928.03;;;5.10;94.97
15646;BME280;7922;43.622;1.476;2023-03-16T01:36:51;99984.22;;;5.45;95.55
15646;BME280;7922;43.622;1.476;2023-03-16T01:39:16;99920.13;;;5.12;95.27
15646;BME280;7922;43.622;1.476;2023-03-16T01:41:43;100013.41;;;5.70;95.65
15646;BME280;7922;43.622;1.476;2023-03-16T01:44:14;99882.03;;;4.92;95.61
15646;BME280;7922;43.622;1.476;2023-03-16T01:46:39;99892.38;;;5.00;95.56
15646;BME280;7922;43.622;1.476;2023-03-16T01:49:17;99972.69;;;5.50;95.75
15646;BME280;7922;43.622;1.476;2023-03-16T01:51:57;100021.25;;;5.73;95.42
15646;BME280;7922;43.622;1.476;2023-03-16T01:54:29;100025.75;;;5.68;96.06
15646;BME280;7922;43.622;1.476;2023-03-16T01:57:00;99878.03;;;4.76;95.51
15646;BME280;7922;43.622;1.476;2023-03-16T01:59:32;99903.94;;;4.90;95.63
15646;BME280;7922;43.622;1.476;2023-03-16T02:01:59;99934.94;;;5.16;94.78
15646;BME280;7922;43.622;1.476;2023-03-16T02:06:56;99790.69;;;4.27;95.20
15646;BME280;7922;43.622;1.476;2023-03-16T02:09:23;99861.81;;;4.55;95.16
15646;BME280;7922;43.622;1.476;2023-03-16T02:11:49;99967.41;;;5.10;95.49
15646;BME280;7922;43.622;1.476;2023-03-16T02:14:16;99914.66;;;4.80;95.98
15646;BME280;7922;43.622;1.476;2023-03-16T02:16:41;99922.41;;;4.87;95.73
15646;BME280;7922;43.622;1.476;2023-03-16T02:19:11;99831.66;;;4.33;95.48
15646;BME280;7922;43.622;1.476;2023-03-16T02:21:57;99938.81;;;4.98;95.57
15646;BME280;7922;43.622;1.476;2023-03-16T02:24:25;99825.50;;;4.34;95.88
15646;BME280;7922;43.622;1.476;2023-03-16T02:26:54;99805.44;;;4.31;96.23
15646;BME280;7922;43.622;1.476;2023-03-16T02:32:04;99967.09;;;5.27;95.78
15646;BME280;7922;43.622;1.476;2023-03-16T02:34:30;99816.84;;;4.30;96.61
15646;BME280;7922;43.622;1.476;2023-03-16T02:36:56;99865.34;;;4.54;96.16
15646;BME280;7922;43.622;1.476;2023-03-16T02:39:22;99938.47;;;5.13;95.84
15646;BME280;7922;43.622;1.476;2023-03-16T02:41:48;99922.94;;;5.02;96.18
15646;BME280;7922;43.622;1.476;2023-03-16T02:44:22;99922.97;;;5.01;95.74
15646;BME280;7922;43.622;1.476;2023-03-16T02:46:51;99903.84;;;4.96;96.35
15646;BME280;7922;43.622;1.476;2023-03-16T02:49:24;99935.88;;;5.12;96.57
15646;BME280;7922;43.622;1.476;2023-03-16T02:51:51;99881.50;;;4.76;96.81
15646;BME280;7922;43.622;1.476;2023-03-16T02:54:16;99885.94;;;4.73;96.18
15646;BME280;7922;43.622;1.476;2023-03-16T02:56:42;99787.44;;;4.15;96.09
15646;BME280;7922;43.622;1.476;2023-03-16T02:59:08;99948.28;;;5.05;95.87
15646;BME280;7922;43.622;1.476;2023-03-16T03:01:33;99749.38;;;3.95;95.60
15646;BME280;7922;43.622;1.476;2023-03-16T03:03:59;99867.06;;;4.55;96.10
15646;BME280;7922;43.622;1.476;2023-03-16T03:06:24;99767.69;;;3.97;95.58
15646;BME280;7922;43.622;1.476;2023-03-16T03:08:50;99873.97;;;4.59;96.61
15646;BME280;7922;43.622;1.476;2023-03-16T03:11:16;99922.41;;;4.87;96.02
15646;BME280;7922;43.622;1.476;2023-03-16T03:13:41;99740.94;;;3.79;95.83
15646;BME280;7922;43.622;1.476;2023-03-16T03:16:07;99820.47;;;4.25;96.43
15646;BME280;7922;43.622;1.476;2023-03-16T03:18:32;99743.47;;;3.85;96.61
15646;BME280;7922;43.622;1.476;2023-03-16T03:20:57;99873.00;;;4.64;95.96
15646;BME280;7922;43.622;1.476;2023-03-16T03:23:23;99715.75;;;3.72;95.48
15646;BME280;7922;43.622;1.476;2023-03-16T03:25:48;99834.94;;;4.43;95.47
15646;BME280;7922;43.622;1.476;2023-03-16T03:28:13;99711.31;;;3.76;96.29
15646;BME280;7922;43.622;1.476;2023-03-16T03:30:39;99846.94;;;4.56;96.76
15646;BME280;7922;43.622;1.476;2023-03-16T03:33:04;99840.78;;;4.57;96.16
15646;BME280;7922;43.622;1.476;2023-03-16T03:35:29;99816.50;;;4.47;96.25
15646;BME280;7922;43.622;1.476;2023-03-16T03:37:55;99700.72;;;3.82;96.34
15646;BME280;7922;43.622;1.476;2023-03-16T03:40:20;99712.72;;;3.94;96.55
15646;BME280;7922;43.622;1.476;2023-03-16T03:42:46;99861.53;;;4.69;96.28
15646;BME280;7922;43.622;1.476;2023-03-16T03:45:13;99737.22;;;3.91;96.00
15646;BME280;7922;43.622;1.476;2023-03-16T03:47:40;99721.63;;;3.85;95.63
15646;BME280;7922;43.622;1.476;2023-03-16T03:50:06;99901.69;;;4.71;96.98
15646;BME280;7922;43.622;1.476;2023-03-16T03:52:32;99685.72;;;3.45;96.50
15646;BME280;7922;43.622;1.476;2023-03-16T03:54:57;99720.22;;;3.67;96.78
15646;BME280;7922;43.622;1.476;2023-03-16T03:57:22;99863.66;;;4.50;96.78
15646;BME280;7922;43.622;1.476;2023-03-16T03:59:47;99853.13;;;4.52;95.90
15646;BME280;7922;43.622;1.476;2023-03-16T04:02:13;99832.19;;;4.50;95.96
15646;BME280;7922;43.622;1.476;2023-03-16T04:04:40;99865.06;;;4.67;96.34
15646;BME280;7922;43.622;1.476;2023-03-16T04:07:06;99719.88;;;3.84;95.84
15646;BME280;7922;43.622;1.476;2023-03-16T04:09:32;99803.78;;;4.27;96.27
15646;BME280;7922;43.622;1.476;2023-03-16T04:11:57;99729.41;;;3.88;95.74
15646;BME280;7922;43.622;1.476;2023-03-16T04:14:22;99686.34;;;3.59;95.88
15646;BME280;7922;43.622;1.476;2023-03-16T04:16:47;99689.81;;;3.58;96.10
15646;BME280;7922;43.622;1.476;2023-03-16T04:19:13;99662.97;;;3.47;95.98
15646;BME280;7922;43.622;1.476;2023-03-16T04:21:38;99802.06;;;4.26;96.24
15646;BME280;7922;43.622;1.476;2023-03-16T04:24:03;99707.09;;;3.69;96.29
15646;BME280;7922;43.622;1.476;2023-03-16T04:26:31;99717.50;;;3.72;96.23
15646;BME280;7922;43.622;1.476;2023-03-16T04:28:57;99847.19;;;4.42;96.01
15646;BME280;7922;43.622;1.476;2023-03-16T04:31:23;99855.00;;;4.47;96.33
15646;BME280;7922;43.622;1.476;2023-03-16T04:33:49;99804.13;;;4.09;96.30
15646;BME280;7922;43.622;1.476;2023-03-16T04:36:14;99697.06;;;3.46;95.69
15646;BME280;7922;43.622;1.476;2023-03-16T04:38:39;99734.84;;;3.77;96.52
15646;BME280;7922;43.622;1.476;2023-03-16T04:41:05;99661.66;;;3.25;96.28
15646;BME280;7922;43.622;1.476;2023-03-16T04:43:31;99785.19;;;3.96;96.46
15646;BME280;7922;43.622;1.476;2023-03-16T04:45:57;99769.66;;;3.84;95.97
15646;BME280;7922;43.622;1.476;2023-03-16T04:48:22;99873.41;;;4.44;96.74
15646;BME280;7922;43.622;1.476;2023-03-16T04:50:47;99807.81;;;4.00;96.32
15646;BME280;7922;43.622;1.476;2023-03-16T04:53:13;99870.13;;;4.31;96.86
15646;BME280;7922;43.622;1.476;2023-03-16T04:55:38;99827.88;;;4.01;96.74
15646;BME280;7922;43.622;1.476;2023-03-16T04:58:04;99836.50;;;4.08;96.44
15646;BME280;7922;43.622;1.476;2023-03-16T05:00:29;99776.91;;;3.70;96.61
15646;BME280;7922;43.622;1.476;2023-03-16T05:02:54;99839.13;;;4.06;96.55
15646;BME280;7922;43.622;1.476;2023-03-16T05:05:20;99815.97;;;3.83;96.39
15646;BME280;7922;43.622;1.476;2023-03-16T05:07:46;99842.59;;;4.08;96.88
15646;BME280;7922;43.622;1.476;2023-03-16T05:12:39;99817.56;;;3.92;96.18
15646;BME280;7922;43.622;1.476;2023-03-16T05:15:05;99698.28;;;3.25;95.90
15646;BME280;7922;43.622;1.476;2023-03-16T05:17:31;99816.59;;;3.98;96.61
15646;BME280;7922;43.622;1.476;2023-03-16T05:19:56;99799.19;;;3.94;96.12
15646;BME280;7922;43.622;1.476;2023-03-16T05:22:21;99631.72;;;2.90;95.83
15646;BME280;7922;43.622;1.476;2023-03-16T05:24:47;99667.06;;;3.14;96.38
15646;BME280;7922;43.622;1.476;2023-03-16T05:27:12;99676.72;;;3.10;96.57
15646;BME280;7922;43.622;1.476;2023-03-16T05:29:37;99791.66;;;3.75;96.58
15646;BME280;7922;43.622;1.476;2023-03-16T05:32:04;99736.47;;;3.36;95.96
15646;BME280;7922;43.622;1.476;2023-03-16T05:34:29;99802.78;;;3.90;96.26
15646;BME280;7922;43.622;1.476;2023-03-16T05:36:54;99677.53;;;3.14;95.93
15646;BME280;7922;43.622;1.476;2023-03-16T05:39:20;99740.72;;;3.45;95.77
15646;BME280;7922;43.622;1.476;2023-03-16T05:41:45;99730.31;;;3.39;95.79
15646;BME280;7922;43.622;1.476;2023-03-16T05:44:10;99728.53;;;3.43;95.27
15646;BME280;7922;43.622;1.476;2023-03-16T05:46:36;99699.09;;;3.28;95.38
15646;BME280;7922;43.622;1.476;2023-03-16T05:49:01;99849.47;;;4.16;94.84
15646;BME280;7922;43.622;1.476;2023-03-16T05:51:27;99764.91;;;3.59;95.34
15646;BME280;7922;43.622;1.476;2023-03-16T05:53:53;99783.84;;;3.72;95.08
15646;BME280;7922;43.622;1.476;2023-03-16T05:56:18;99687.09;;;3.15;95.06
15646;BME280;7922;43.622;1.476;2023-03-16T05:58:43;99678.44;;;3.11;94.96
15646;BME280;7922;43.622;1.476;2023-03-16T06:01:09;99664.44;;;3.14;94.60
15646;BME280;7922;43.622;1.476;2023-03-16T06:03:34;99686.19;;;3.18;94.99
15646;BME280;7922;43.622;1.476;2023-03-16T06:05:59;99804.47;;;3.91;94.84
15646;BME280;7922;43.622;1.476;2023-03-16T06:08:24;99629.03;;;2.93;94.41
15646;BME280;7922;43.622;1.476;2023-03-16T06:10:50;99837.22;;;4.16;94.49
15646;BME280;7922;43.622;1.476;2023-03-16T06:13:15;99737.00;;;3.55;94.13
15646;BME280;7922;43.622;1.476;2023-03-16T06:15:40;99810.53;;;3.94;94.02
15646;BME280;7922;43.622;1.476;2023-03-16T06:18:06;99635.09;;;2.98;93.48
15646;BME280;7922;43.622;1.476;2023-03-16T06:20:31;99726.47;;;3.58;93.47
15646;BME280;7922;43.622;1.476;2023-03-16T06:22:56;99715.25;;;3.53;93.36
15646;BME280;7922;43.622;1.476;2023-03-16T06:25:22;99779.09;;;3.94;93.58
15646;BME280;7922;43.622;1.476;2023-03-16T06:27:47;99791.22;;;4.00;93.34
15646;BME280;7922;43.622;1.476;2023-03-16T06:30:13;99839.38;;;4.39;93.21
15646;BME280;7922;43.622;1.476;2023-03-16T06:32:39;99805.59;;;4.25;92.88
15646;BME280;7922;43.622;1.476;2023-03-16T06:35:04;99661.97;;;3.54;92.33
15646;BME280;7922;43.622;1.476;2023-03-16T06:37:30;99786.13;;;4.37;92.09
15646;BME280;7922;43.622;1.476;2023-03-16T06:39:55;99678.13;;;3.78;91.70
15646;BME280;7922;43.622;1.476;2023-03-16T06:42:21;99659.69;;;3.81;91.73
15646;BME280;7922;43.622;1.476;2023-03-16T06:44:46;99779.56;;;4.58;92.02
15646;BME280;7922;43.622;1.476;2023-03-16T06:47:12;99796.41;;;4.88;90.66
15646;BME280;7922;43.622;1.476;2023-03-16T06:49:37;99802.31;;;4.98;90.23
15646;BME280;7922;43.622;1.476;2023-03-16T06:52:02;99753.56;;;4.88;89.95
15646;BME280;7922;43.622;1.476;2023-03-16T06:54:28;99785.97;;;5.22;89.32
15646;BME280;7922;43.622;1.476;2023-03-16T06:56:53;99745.97;;;5.13;88.40
15646;BME280;7922;43.622;1.476;2023-03-16T06:59:18;99612.81;;;4.48;88.80
15646;BME280;7922;43.622;1.476;2023-03-16T07:01:44;99723.78;;;5.24;89.09
15646;BME280;7922;43.622;1.476;2023-03-16T07:04:09;99744.78;;;5.60;88.10
15646;BME280;7922;43.622;1.476;2023-03-16T07:06:35;99679.53;;;5.43;87.11
15646;BME280;7922;43.622;1.476;2023-03-16T07:09:00;99739.50;;;5.94;87.60
15646;BME280;7922;43.622;1.476;2023-03-16T07:11:26;99641.47;;;5.58;86.72
15646;BME280;7922;43.622;1.476;2023-03-16T07:13:51;99772.81;;;6.56;87.01
15646;BME280;7922;43.622;1.476;2023-03-16T07:16:16;99737.19;;;6.74;86.48
15646;BME280;7922;43.622;1.476;2023-03-16T07:18:42;99640.88;;;6.39;86.74
15646;BME280;7922;43.622;1.476;2023-03-16T07:21:07;99650.63;;;6.65;85.61
15646;BME280;7922;43.622;1.476;2023-03-16T07:23:32;99659.97;;;7.02;85.12
15646;BME280;7922;43.622;1.476;2023-03-16T07:25:57;99686.75;;;7.41;84.34
15646;BME280;7922;43.622;1.476;2023-03-16T07:28:23;99756.66;;;8.01;82.94
15646;BME280;7922;43.622;1.476;2023-03-16T07:30:49;99813.59;;;8.57;81.39
15646;BME280;7922;43.622;1.476;2023-03-16T07:33:14;99776.72;;;8.55;79.97
15646;BME280;7922;43.622;1.476;2023-03-16T07:35:39;99676.38;;;8.10;79.64
15646;BME280;7922;43.622;1.476;2023-03-16T07:38:05;99696.44;;;8.37;78.32
15646;BME280;7922;43.622;1.476;2023-03-16T07:40:30;99785.41;;;9.04;77.31
15646;BME280;7922;43.622;1.476;2023-03-16T07:42:55;99792.41;;;9.27;75.61
15646;BME280;7922;43.622;1.476;2023-03-16T07:45:21;99804.22;;;9.40;74.86
15646;BME280;7922;43.622;1.476;2023-03-16T07:47:46;99670.38;;;8.74;73.90
15646;BME280;7922;43.622;1.476;2023-03-16T07:50:12;99714.00;;;9.06;72.71
15646;BME280;7922;43.622;1.476;2023-03-16T07:52:37;99757.75;;;9.35;71.81
15646;BME280;7922;43.622;1.476;2023-03-16T07:55:02;99783.06;;;9.62;69.86
15646;BME280;7922;43.622;1.476;2023-03-16T07:57:28;99683.53;;;9.19;67.50
15646;BME280;7922;43.622;1.476;2023-03-16T07:59:53;99802.78;;;9.96;67.22
15646;BME280;7922;43.622;1.476;2023-03-16T08:02:19;99795.09;;;10.10;66.95
15646;BME280;7922;43.622;1.476;2023-03-16T08:04:45;99796.44;;;10.21;65.57
15646;BME280;7922;43.622;1.476;2023-03-16T08:07:12;99808.09;;;10.37;63.02
15646;BME280;7922;43.622;1.476;2023-03-16T08:09:38;99781.22;;;10.26;62.49
15646;BME280;7922;43.622;1.476;2023-03-16T08:12:06;99676.50;;;9.79;61.04
15646;BME280;7922;43.622;1.476;2023-03-16T08:14:32;99696.56;;;9.85;60.33
15646;BME280;7922;43.622;1.476;2023-03-16T08:16:57;99785.56;;;10.47;59.30
15646;BME280;7922;43.622;1.476;2023-03-16T08:19:23;99810.00;;;10.73;59.47
15646;BME280;7922;43.622;1.476;2023-03-16T08:21:48;99764.03;;;10.55;58.05
15646;BME280;7922;43.622;1.476;2023-03-16T08:24:13;99762.09;;;10.58;57.77
15646;BME280;7922;43.622;1.476;2023-03-16T08:26:38;99663.28;;;10.19;58.13
15646;BME280;7922;43.622;1.476;2023-03-16T08:29:04;99645.69;;;10.18;57.73
15646;BME280;7922;43.622;1.476;2023-03-16T08:31:29;99797.06;;;11.04;57.06
15646;BME280;7922;43.622;1.476;2023-03-16T08:33:55;99771.97;;;10.93;56.31
15646;BME280;7922;43.622;1.476;2023-03-16T08:36:21;99696.59;;;10.62;55.97
15646;BME280;7922;43.622;1.476;2023-03-16T08:38:46;99773.31;;;11.20;54.17
15646;BME280;7922;43.622;1.476;2023-03-16T08:41:12;99672.47;;;10.68;53.69
15646;BME280;7922;43.622;1.476;2023-03-16T08:43:37;99770.56;;;11.22;54.20
15646;BME280;7922;43.622;1.476;2023-03-16T08:46:03;99651.44;;;10.65;53.86
15646;BME280;7922;43.622;1.476;2023-03-16T08:48:28;99770.13;;;11.31;53.15
15646;BME280;7922;43.622;1.476;2023-03-16T08:50:54;99667.66;;;10.76;53.44
15646;BME280;7922;43.622;1.476;2023-03-16T08:53:19;99779.94;;;11.48;52.19
15646;BME280;7922;43.622;1.476;2023-03-16T08:55:45;99657.41;;;10.88;52.32
15646;BME280;7922;43.622;1.476;2023-03-16T08:58:10;99802.41;;;11.75;51.85
15646;BME280;7922;43.622;1.476;2023-03-16T09:00:36;99730.44;;;11.47;53.03
15646;BME280;7922;43.622;1.476;2023-03-16T09:03:02;99775.47;;;11.83;53.04
15646;BME280;7922;43.622;1.476;2023-03-16T09:05:28;99780.22;;;11.95;52.10
15646;BME280;7922;43.622;1.476;2023-03-16T09:07:53;99759.28;;;11.89;51.54
15646;BME280;7922;43.622;1.476;2023-03-16T09:10:20;99638.66;;;11.27;51.59
15646;BME280;7922;43.622;1.476;2023-03-16T09:12:45;99660.25;;;11.37;50.19
15646;BME280;7922;43.622;1.476;2023-03-16T09:15:11;99780.88;;;12.16;50.89
15646;BME280;7922;43.622;1.476;2023-03-16T09:17:37;99791.56;;;12.32;50.96
15646;BME280;7922;43.622;1.476;2023-03-16T09:20:04;99733.59;;;12.07;51.21
15646;BME280;7922;43.622;1.476;2023-03-16T09:22:29;99658.91;;;11.63;50.34
15646;BME280;7922;43.622;1.476;2023-03-16T09:24:55;99647.25;;;11.65;51.25
15646;BME280;7922;43.622;1.476;2023-03-16T09:27:20;99678.19;;;11.84;50.72
15646;BME280;7922;43.622;1.476;2023-03-16T09:29:45;99684.13;;;11.89;50.57
15646;BME280;7922;43.622;1.476;2023-03-16T09:32:11;99755.25;;;12.33;50.85
15646;BME280;7922;43.622;1.476;2023-03-16T09:34:36;99691.94;;;11.92;50.38
15646;BME280;7922;43.622;1.476;2023-03-16T09:37:02;99655.09;;;11.86;49.48
15646;BME280;7922;43.622;1.476;2023-03-16T09:39:27;99653.38;;;11.85;49.88
15646;BME280;7922;43.622;1.476;2023-03-16T09:41:59;99649.38;;;11.93;50.23
15646;BME280;7922;43.622;1.476;2023-03-16T09:47:00;99677.50;;;12.13;49.18
15646;BME280;7922;43.622;1.476;2023-03-16T09:49:33;99771.63;;;12.90;49.51
15646;BME280;7922;43.622;1.476;2023-03-16T09:54:46;99771.47;;;12.93;49.28
15646;BME280;7922;43.622;1.476;2023-03-16T09:57:29;99798.63;;;13.14;49.34
15646;BME280;7922;43.622;1.476;2023-03-16T10:00:09;99679.06;;;12.49;49.26
15646;BME280;7922;43.622;1.476;2023-03-16T10:05:12;99794.72;;;13.37;49.49
15646;BME280;7922;43.622;1.476;2023-03-16T10:10:45;99789.47;;;13.35;48.80
15646;BME280;7922;43.622;1.476;2023-03-16T10:13:16;99746.97;;;13.18;48.77
15646;BME280;7922;43.622;1.476;2023-03-16T10:15:48;99757.47;;;13.37;48.91
15646;BME280;7922;43.622;1.476;2023-03-16T10:18:18;99777.94;;;13.51;48.84
15646;BME280;7922;43.622;1.476;2023-03-16T10:20:44;99638.94;;;12.85;48.93
15646;BME280;7922;43.622;1.476;2023-03-16T10:23:17;99658.81;;;13.10;49.32
15646;BME280;7922;43.622;1.476;2023-03-16T10:25:51;99767.34;;;13.81;48.40
15646;BME280;7922;43.622;1.476;2023-03-16T10:28:27;99669.97;;;13.16;48.63
15646;BME280;7922;43.622;1.476;2023-03-16T10:30:57;99671.56;;;13.35;49.72
15646;BME280;7922;43.622;1.476;2023-03-16T10:33:31;99755.84;;;13.80;48.47
15646;BME280;7922;43.622;1.476;2023-03-16T10:36:02;99736.78;;;13.72;48.62
15646;BME280;7922;43.622;1.476;2023-03-16T10:38:45;99781.09;;;14.17;48.87
15646;BME280;7922;43.622;1.476;2023-03-16T10:43:42;99747.34;;;14.32;49.10
15646;BME280;7922;43.622;1.476;2023-03-16T10:46:09;99766.41;;;14.55;49.15
15646;BME280;7922;43.622;1.476;2023-03-16T10:48:35;99768.97;;;14.42;47.64
15646;BME280;7922;43.622;1.476;2023-03-16T10:51:05;99626.28;;;13.65;47.89
15646;BME280;7922;43.622;1.476;2023-03-16T10:53:34;99667.19;;;13.78;47.55
15646;BME280;7922;43.622;1.476;2023-03-16T10:56:17;99761.34;;;14.36;47.67
15646;BME280;7922;43.622;1.476;2023-03-16T10:58:43;99718.41;;;14.26;47.34
15646;BME280;7922;43.622;1.476;2023-03-16T11:01:17;99670.25;;;14.01;47.93
15646;BME280;7922;43.622;1.476;2023-03-16T11:03:47;99750.53;;;14.53;47.64
15646;BME280;7922;43.622;1.476;2023-03-16T11:06:20;99685.88;;;14.35;47.97
15646;BME280;7922;43.622;1.476;2023-03-16T11:08:45;99689.28;;;14.52;47.54
15646;BME280;7922;43.622;1.476;2023-03-16T11:11:17;99598.66;;;13.96;48.16
15646;BME280;7922;43.622;1.476;2023-03-16T11:13:46;99738.72;;;14.99;47.43
15646;BME280;7922;43.622;1.476;2023-03-16T11:16:36;99757.31;;;15.00;47.59
15646;BME280;7922;43.622;1.476;2023-03-16T11:19:26;99728.28;;;14.81;46.78
15646;BME280;7922;43.622;1.476;2023-03-16T11:26:54;99743.03;;;15.01;46.31
15646;BME280;7922;43.622;1.476;2023-03-16T11:29:31;99725.59;;;14.96;46.77
15646;BME280;7922;43.622;1.476;2023-03-16T11:32:13;99713.16;;;14.82;45.71
15646;BME280;7922;43.622;1.476;2023-03-16T11:34:43;99346.47;;;12.87;45.86
15646;BME280;7922;43.622;1.476;2023-03-16T11:47:50;99728.97;;;15.39;45.79
15646;BME280;7922;43.622;1.476;2023-03-16T11:53:04;99621.06;;;14.76;45.42
15646;BME280;7922;43.622;1.476;2023-03-16T11:55:49;99738.50;;;15.70;45.04
15646;BME280;7922;43.622;1.476;2023-03-16T12:03:46;99687.19;;;15.65;46.04
15646;BME280;7922;43.622;1.476;2023-03-16T12:17:56;99668.34;;;15.54;44.94
15646;BME280;7922;43.622;1.476;2023-03-16T12:20:42;99700.13;;;15.71;44.58
15646;BME280;7922;43.622;1.476;2023-03-16T12:23:34;99629.56;;;15.23;44.33
15646;BME280;7922;43.622;1.476;2023-03-16T12:25:59;99697.50;;;15.84;44.22
15646;BME280;7922;43.622;1.476;2023-03-16T12:28:26;99728.69;;;15.96;44.96
15646;BME280;7922;43.622;1.476;2023-03-16T12:36:00;99679.44;;;15.87;45.50
15646;BME280;7922;43.622;1.476;2023-03-16T12:39:01;99725.81;;;16.25;45.20
15646;BME280;7922;43.622;1.476;2023-03-16T12:41:31;99613.06;;;15.56;44.11
15646;BME280;7922;43.622;1.476;2023-03-16T12:47:10;99709.44;;;15.78;45.20
15646;BME280;7922;43.622;1.476;2023-03-16T12:49:38;99525.38;;;15.11;46.37
15646;BME280;7922;43.622;1.476;2023-03-16T12:52:06;99683.50;;;16.06;45.39
15646;BME280;7922;43.622;1.476;2023-03-16T12:54:33;99606.97;;;15.79;45.13
15646;BME280;7922;43.622;1.476;2023-03-16T12:57:08;99579.63;;;15.63;45.03
15646;BME280;7922;43.622;1.476;2023-03-16T12:59:40;99614.59;;;15.98;46.16
15646;BME280;7922;43.622;1.476;2023-03-16T13:02:14;99616.19;;;15.88;45.26
15646;BME280;7922;43.622;1.476;2023-03-16T13:04:43;99588.94;;;15.70;45.92
15646;BME280;7922;43.622;1.476;2023-03-16T13:07:18;99701.22;;;16.45;46.10
15646;BME280;7922;43.622;1.476;2023-03-16T13:09:52;99595.13;;;16.09;45.01
15646;BME280;7922;43.622;1.476;2023-03-16T13:12:30;99601.75;;;16.03;45.45
15646;BME280;7922;43.622;1.476;2023-03-16T13:14:55;99659.13;;;16.23;45.15
15646;BME280;7922;43.622;1.476;2023-03-16T13:17:29;99555.94;;;15.58;44.94
15646;BME280;7922;43.622;1.476;2023-03-16T13:20:06;99680.69;;;16.46;44.37
15646;BME280;7922;43.622;1.476;2023-03-16T13:22:49;99677.66;;;16.63;44.45
15646;BME280;7922;43.622;1.476;2023-03-16T13:25:34;99631.31;;;16.63;45.26
15646;BME280;7922;43.622;1.476;2023-03-16T13:27:59;99632.09;;;16.52;45.56
15646;BME280;7922;43.622;1.476;2023-03-16T13:30:28;99547.38;;;15.79;44.71
15646;BME280;7922;43.622;1.476;2023-03-16T13:33:23;99629.16;;;16.31;45.26
15646;BME280;7922;43.622;1.476;2023-03-16T13:35:50;99641.78;;;16.29;45.28
15646;BME280;7922;43.622;1.476;2023-03-16T13:38:17;99659.50;;;16.43;44.71
15646;BME280;7922;43.622;1.476;2023-03-16T13:40:46;99650.72;;;16.53;45.59
15646;BME280;7922;43.622;1.476;2023-03-16T13:43:14;99651.59;;;16.41;45.51
15646;BME280;7922;43.622;1.476;2023-03-16T13:45:39;99530.72;;;15.75;45.54
15646;BME280;7922;43.622;1.476;2023-03-16T13:48:05;99576.34;;;15.98;46.07
15646;BME280;7922;43.622;1.476;2023-03-16T13:50:34;99607.72;;;16.20;46.80
15646;BME280;7922;43.622;1.476;2023-03-16T13:53:02;99586.84;;;16.12;46.49
15646;BME280;7922;43.622;1.476;2023-03-16T13:55:34;99490.88;;;15.59;46.47
15646;BME280;7922;43.622;1.476;2023-03-16T13:58:00;99609.81;;;16.27;46.06
15646;BME280;7922;43.622;1.476;2023-03-16T14:00:36;99617.25;;;16.48;46.34
15646;BME280;7922;43.622;1.476;2023-03-16T14:03:13;99591.22;;;16.26;46.05
15646;BME280;7922;43.622;1.476;2023-03-16T14:05:38;99531.03;;;15.83;46.16
15646;BME280;7922;43.622;1.476;2023-03-16T14:08:14;99523.81;;;15.73;46.66
15646;BME280;7922;43.622;1.476;2023-03-16T14:10:40;99499.53;;;15.50;46.48
15646;BME280;7922;43.622;1.476;2023-03-16T14:13:22;99624.06;;;16.15;47.12
15646;BME280;7922;43.622;1.476;2023-03-16T14:15:48;99629.09;;;16.20;47.42
15646;BME280;7922;43.622;1.476;2023-03-16T14:18:18;99627.44;;;16.43;47.44
15646;BME280;7922;43.622;1.476;2023-03-16T14:20:44;99576.16;;;16.12;47.08
15646;BME280;7922;43.622;1.476;2023-03-16T14:23:24;99638.50;;;16.12;47.67
15646;BME280;7922;43.622;1.476;2023-03-16T14:25:51;99605.47;;;16.01;48.44